NCAR-RAP Real-Time Weather Data

Output produced by METARs form (17 September 2019  16:29 UTC)
found at http://weather.rap.ucar.edu/surface/
 
KHSI 171553Z AUTO 18012G27KT 10SM CLR 28/18 A2994 RMK AO2 PK WND 19027/1545 SLP118 T02780178
KHSI 171453Z AUTO 18013G25KT 10SM CLR 26/18 A2994 RMK AO2 SLP120 T02610178 58002
KHSI 171353Z AUTO 18013G20KT 10SM CLR 24/18 A2995 RMK AO2 SLP122 T02390183
KHSI 171253Z AUTO 17010G17KT 9SM CLR 23/18 A2996 RMK AO2 SLP125 T02280183
KHSI 171153Z AUTO 18009KT 10SM CLR 23/19 A2995 RMK AO2 SLP122 T02280189 10250 20228 53004
KHSI 171053Z AUTO 18010G19KT 10SM CLR 23/19 A2994 RMK AO2 SLP117 T02280189
KHSI 170953Z AUTO 18010G19KT 10SM CLR 23/19 A2994 RMK AO2 SLP118 T02330189
KHSI 170853Z AUTO 18011G20KT 10SM CLR 24/19 A2994 RMK AO2 SLP116 T02390189 58003
KHSI 170753Z AUTO 18012G19KT 10SM CLR 24/19 A2995 RMK AO2 SLP120 T02390189
KHSI 170653Z AUTO 17012G19KT 10SM CLR 24/18 A2995 RMK AO2 SLP120 T02440183
KHSI 170553Z AUTO 18012G21KT 10SM CLR 25/18 A2995 RMK AO2 SLP119 T02500183 10300 20250 403170206 51003
KHSI 170453Z AUTO 17012G20KT 10SM CLR 26/18 A2995 RMK AO2 SLP121 T02560178
KHSI 170353Z AUTO 17012G23KT 10SM CLR 26/17 A2994 RMK AO2 SLP121 T02560172
KHSI 170253Z AUTO 16012G20KT 10SM CLR 26/17 A2994 RMK AO2 SLP119 T02560167 53006
KHSI 170053Z AUTO 16009KT 10SM CLR 28/15 A2992 RMK AO2 SLP114 T02830150
KHSI 162353Z AUTO 16011G18KT 10SM CLR 30/16 A2992 RMK AO2 SLP111 T03000156 10317 20300 55008
KHSI 162253Z AUTO 17014G22KT 10SM CLR 31/16 A2992 RMK AO2 SLP110 T03110161
KHSI 162153Z AUTO 17011G23KT 10SM FEW085 31/16 A2993 RMK AO2 PK WND 18027/2106 SLP113 T03110156
KHSI 162053Z AUTO 17014G21KT 10SM CLR 32/17 A2994 RMK AO2 SLP119 T03170167 58019
KHSI 161953Z AUTO 18017G27KT 10SM CLR 31/17 A2996 RMK AO2 PK WND 18027/1952 SLP126 T03110167